sensor_id;sensor_type;location;lat;lon;timestamp;pressure;altitude;pressure_sealevel;temperature;humidity
5996;BME280;3026;53.612;7.278;2023-02-18T00:02:20;101787.03;;;7.53;100.00
5996;BME280;3026;53.612;7.278;2023-02-18T00:04:49;101786.28;;;7.51;100.00
5996;BME280;3026;53.612;7.278;2023-02-18T00:07:17;101787.03;;;7.53;100.00
5996;BME280;3026;53.612;7.278;2023-02-18T00:09:44;101795.28;;;7.51;100.00
5996;BME280;3026;53.612;7.278;2023-02-18T00:12:11;101791.34;;;7.55;100.00
5996;BME280;3026;53.612;7.278;2023-02-18T00:14:38;101791.34;;;7.55;100.00
5996;BME280;3026;53.612;7.278;2023-02-18T00:17:05;101791.34;;;7.55;100.00
5996;BME280;3026;53.612;7.278;2023-02-18T00:19:32;101782.19;;;7.56;100.00
5996;BME280;3026;53.612;7.278;2023-02-18T00:21:59;101782.19;;;7.56;100.00
5996;BME280;3026;53.612;7.278;2023-02-18T00:24:28;101769.34;;;7.58;100.00
5996;BME280;3026;53.612;7.278;2023-02-18T00:26:55;101771.34;;;7.56;100.00
5996;BME280;3026;53.612;7.278;2023-02-18T00:29:22;101770.22;;;7.59;100.00
5996;BME280;3026;53.612;7.278;2023-02-18T00:31:49;101765.66;;;7.59;100.00
5996;BME280;3026;53.612;7.278;2023-02-18T00:34:16;101765.66;;;7.59;100.00
5996;BME280;3026;53.612;7.278;2023-02-18T00:36:43;101762.94;;;7.59;100.00
5996;BME280;3026;53.612;7.278;2023-02-18T00:39:11;101754.06;;;7.57;100.00
5996;BME280;3026;53.612;7.278;2023-02-18T00:41:39;101765.38;;;7.63;100.00
5996;BME280;3026;53.612;7.278;2023-02-18T00:44:07;101762.78;;;7.61;100.00
5996;BME280;3026;53.612;7.278;2023-02-18T00:46:34;101752.78;;;7.61;100.00
5996;BME280;3026;53.612;7.278;2023-02-18T00:49:02;101739.94;;;7.64;100.00
5996;BME280;3026;53.612;7.278;2023-02-18T00:51:30;101733.56;;;7.65;100.00
5996;BME280;3026;53.612;7.278;2023-02-18T00:53:56;101709.63;;;7.58;100.00
5996;BME280;3026;53.612;7.278;2023-02-18T00:56:24;101714.78;;;7.61;100.00
5996;BME280;3026;53.612;7.278;2023-02-18T00:58:52;101713.06;;;7.60;100.00
5996;BME280;3026;53.612;7.278;2023-02-18T01:01:19;101711.34;;;7.59;100.00
5996;BME280;3026;53.612;7.278;2023-02-18T01:03:46;101727.13;;;7.66;100.00
5996;BME280;3026;53.612;7.278;2023-02-18T01:06:14;101716.50;;;7.63;100.00
5996;BME280;3026;53.612;7.278;2023-02-18T01:08:41;101723.66;;;7.64;100.00
5996;BME280;3026;53.612;7.278;2023-02-18T01:11:10;101727.13;;;7.66;100.00
5996;BME280;3026;53.612;7.278;2023-02-18T01:13:38;101716.50;;;7.63;100.00
5996;BME280;3026;53.612;7.278;2023-02-18T01:16:07;101719.72;;;7.68;100.00
5996;BME280;3026;53.612;7.278;2023-02-18T01:18:35;101730.56;;;7.68;100.00
5996;BME280;3026;53.612;7.278;2023-02-18T01:21:03;101723.41;;;7.67;100.00
5996;BME280;3026;53.612;7.278;2023-02-18T01:23:33;101723.16;;;7.70;100.00
5996;BME280;3026;53.612;7.278;2023-02-18T01:26:00;101710.84;;;7.66;100.00
5996;BME280;3026;53.612;7.278;2023-02-18T01:28:27;101723.00;;;7.71;100.00
5996;BME280;3026;53.612;7.278;2023-02-18T01:30:54;101722.03;;;7.72;100.00
5996;BME280;3026;53.612;7.278;2023-02-18T01:33:23;101722.16;;;7.71;100.00
5996;BME280;3026;53.612;7.278;2023-02-18T01:35:51;101720.03;;;7.74;100.00
5996;BME280;3026;53.612;7.278;2023-02-18T01:38:19;101706.84;;;7.70;100.00
5996;BME280;3026;53.612;7.278;2023-02-18T01:40:49;101716.44;;;7.74;100.00
5996;BME280;3026;53.612;7.278;2023-02-18T01:43:18;101718.31;;;7.73;100.00
5996;BME280;3026;53.612;7.278;2023-02-18T01:46:07;101708.31;;;7.74;100.00
5996;BME280;3026;53.612;7.278;2023-02-18T01:48:41;101713.72;;;7.74;100.00
5996;BME280;3026;53.612;7.278;2023-02-18T01:51:11;101715.72;;;7.72;100.00
5996;BME280;3026;53.612;7.278;2023-02-18T01:53:44;101714.50;;;7.76;100.00
5996;BME280;3026;53.612;7.278;2023-02-18T01:56:17;101728.06;;;7.76;100.00
5996;BME280;3026;53.612;7.278;2023-02-18T01:58:45;101717.44;;;7.73;100.00
5996;BME280;3026;53.612;7.278;2023-02-18T02:01:13;101718.91;;;7.77;100.00
5996;BME280;3026;53.612;7.278;2023-02-18T02:03:42;101703.50;;;7.77;100.00
5996;BME280;3026;53.612;7.278;2023-02-18T02:06:17;101695.47;;;7.76;100.00
5996;BME280;3026;53.612;7.278;2023-02-18T02:08:46;101698.91;;;7.78;100.00
5996;BME280;3026;53.612;7.278;2023-02-18T02:11:22;101678.91;;;7.79;100.00
5996;BME280;3026;53.612;7.278;2023-02-18T02:14:03;101690.50;;;7.81;100.00
5996;BME280;3026;53.612;7.278;2023-02-18T02:16:38;101669.78;;;7.80;100.00
5996;BME280;3026;53.612;7.278;2023-02-18T02:19:40;101679.91;;;7.78;100.00
5996;BME280;3026;53.612;7.278;2023-02-18T02:22:39;101680.91;;;7.77;100.00
5996;BME280;3026;53.612;7.278;2023-02-18T02:25:19;101681.63;;;7.79;100.00
5996;BME280;3026;53.612;7.278;2023-02-18T02:28:18;101660.91;;;7.78;100.00
5996;BME280;3026;53.612;7.278;2023-02-18T02:31:11;101658.06;;;7.79;100.00
5996;BME280;3026;53.612;7.278;2023-02-18T02:34:03;101660.91;;;7.78;100.00
5996;BME280;3026;53.612;7.278;2023-02-18T02:36:38;101647.19;;;7.79;100.00
5996;BME280;3026;53.612;7.278;2023-02-18T02:39:14;101651.78;;;7.79;100.00
5996;BME280;3026;53.612;7.278;2023-02-18T02:41:50;101644.75;;;7.76;100.00
5996;BME280;3026;53.612;7.278;2023-02-18T02:44:23;101656.19;;;7.80;100.00
5996;BME280;3026;53.612;7.278;2023-02-18T02:47:01;101641.75;;;7.79;100.00
5996;BME280;3026;53.612;7.278;2023-02-18T02:49:36;101653.47;;;7.80;100.00
5996;BME280;3026;53.612;7.278;2023-02-18T02:52:10;101633.47;;;7.81;100.00
5996;BME280;3026;53.612;7.278;2023-02-18T02:54:38;101628.34;;;7.78;100.00
5996;BME280;3026;53.612;7.278;2023-02-18T02:57:08;101617.47;;;7.78;100.00
5996;BME280;3026;53.612;7.278;2023-02-18T02:59:42;101620.63;;;7.83;100.00
5996;BME280;3026;53.612;7.278;2023-02-18T03:02:24;101611.75;;;7.81;100.00
5996;BME280;3026;53.612;7.278;2023-02-18T03:05:09;101618.63;;;7.85;100.00
5996;BME280;3026;53.612;7.278;2023-02-18T03:10:48;101618.63;;;7.85;100.00
5996;BME280;3026;53.612;7.278;2023-02-18T03:13:29;101612.34;;;7.84;100.00
5996;BME280;3026;53.612;7.278;2023-02-18T03:16:05;101597.19;;;7.82;100.00
5996;BME280;3026;53.612;7.278;2023-02-18T03:18:39;101602.09;;;7.88;100.00
5996;BME280;3026;53.612;7.278;2023-02-18T03:21:10;101585.19;;;7.84;100.00
5996;BME280;3026;53.612;7.278;2023-02-18T03:23:43;101579.63;;;7.86;100.00
5996;BME280;3026;53.612;7.278;2023-02-18T03:26:15;101575.19;;;7.85;100.00
5996;BME280;3026;53.612;7.278;2023-02-18T03:28:44;101580.09;;;7.91;100.00
5996;BME280;3026;53.612;7.278;2023-02-18T03:31:14;101567.75;;;7.87;100.00
5996;BME280;3026;53.612;7.278;2023-02-18T03:33:45;101568.38;;;7.90;100.00
5996;BME280;3026;53.612;7.278;2023-02-18T03:36:14;101556.91;;;7.87;100.00
5996;BME280;3026;53.612;7.278;2023-02-18T03:38:47;101569.38;;;7.89;100.00
5996;BME280;3026;53.612;7.278;2023-02-18T03:41:17;101555.19;;;7.86;100.00
5996;BME280;3026;53.612;7.278;2023-02-18T03:43:48;101544.31;;;7.86;100.00
5996;BME280;3026;53.612;7.278;2023-02-18T03:46:15;101546.31;;;7.84;100.00
5996;BME280;3026;53.612;7.278;2023-02-18T03:48:43;101546.59;;;7.81;100.00
5996;BME280;3026;53.612;7.278;2023-02-18T03:51:11;101553.03;;;7.80;100.00
5996;BME280;3026;53.612;7.278;2023-02-18T03:53:38;101552.03;;;7.81;100.00
5996;BME280;3026;53.612;7.278;2023-02-18T03:56:07;101550.31;;;7.80;100.00
5996;BME280;3026;53.612;7.278;2023-02-18T03:58:34;101552.31;;;7.78;100.00
5996;BME280;3026;53.612;7.278;2023-02-18T04:01:01;101554.03;;;7.79;100.00
5996;BME280;3026;53.612;7.278;2023-02-18T04:03:28;101552.44;;;7.76;100.00
5996;BME280;3026;53.612;7.278;2023-02-18T04:05:55;101547.75;;;7.78;100.00
5996;BME280;3026;53.612;7.278;2023-02-18T04:08:22;101550.00;;;7.73;100.00
5996;BME280;3026;53.612;7.278;2023-02-18T04:10:50;101530.84;;;7.75;100.00
5996;BME280;3026;53.612;7.278;2023-02-18T04:13:18;101512.84;;;7.74;100.00
5996;BME280;3026;53.612;7.278;2023-02-18T04:15:48;101506.31;;;7.76;100.00
5996;BME280;3026;53.612;7.278;2023-02-18T04:18:15;101498.28;;;7.75;100.00
5996;BME280;3026;53.612;7.278;2023-02-18T04:20:45;101502.84;;;7.74;100.00
5996;BME280;3026;53.612;7.278;2023-02-18T04:23:12;101504.44;;;7.77;100.00
5996;BME280;3026;53.612;7.278;2023-02-18T04:25:41;101502.84;;;7.74;100.00
5996;BME280;3026;53.612;7.278;2023-02-18T04:28:10;101505.44;;;7.76;100.00
5996;BME280;3026;53.612;7.278;2023-02-18T04:30:41;101494.59;;;7.76;100.00
5996;BME280;3026;53.612;7.278;2023-02-18T04:33:08;101491.88;;;7.76;100.00
5996;BME280;3026;53.612;7.278;2023-02-18T04:35:36;101485.16;;;7.80;100.00
5996;BME280;3026;53.612;7.278;2023-02-18T04:38:05;101484.59;;;7.76;100.00
5996;BME280;3026;53.612;7.278;2023-02-18T04:40:32;101498.00;;;7.78;100.00
5996;BME280;3026;53.612;7.278;2023-02-18T04:43:00;101494.59;;;7.76;100.00
5996;BME280;3026;53.612;7.278;2023-02-18T04:45:27;101476.84;;;7.72;100.00
5996;BME280;3026;53.612;7.278;2023-02-18T04:47:56;101479.56;;;7.72;100.00
5996;BME280;3026;53.612;7.278;2023-02-18T04:50:23;101457.13;;;7.70;100.00
5996;BME280;3026;53.612;7.278;2023-02-18T04:52:50;101454.22;;;7.61;100.00
5996;BME280;3026;53.612;7.278;2023-02-18T04:55:18;101450.81;;;7.59;100.00
5996;BME280;3026;53.612;7.278;2023-02-18T04:57:45;101433.09;;;7.55;100.00
5996;BME280;3026;53.612;7.278;2023-02-18T05:00:15;101438.66;;;7.54;100.00
5996;BME280;3026;53.612;7.278;2023-02-18T05:02:43;101424.50;;;7.50;100.00
5996;BME280;3026;53.612;7.278;2023-02-18T05:05:12;101416.22;;;7.52;100.00
5996;BME280;3026;53.612;7.278;2023-02-18T05:07:40;101407.22;;;7.51;100.00
5996;BME280;3026;53.612;7.278;2023-02-18T05:10:08;101398.34;;;7.49;100.00
5996;BME280;3026;53.612;7.278;2023-02-18T05:12:36;101400.22;;;7.49;100.00
5996;BME280;3026;53.612;7.278;2023-02-18T05:15:03;101390.22;;;7.49;100.00
5996;BME280;3026;53.612;7.278;2023-02-18T05:17:31;101377.94;;;7.45;100.00
5996;BME280;3026;53.612;7.278;2023-02-18T05:19:58;101380.66;;;7.45;100.00
5996;BME280;3026;53.612;7.278;2023-02-18T05:22:26;101378.78;;;7.46;100.00
5996;BME280;3026;53.612;7.278;2023-02-18T05:24:53;101382.06;;;7.49;100.00
5996;BME280;3026;53.612;7.278;2023-02-18T05:27:20;101376.66;;;7.49;100.00
5996;BME280;3026;53.612;7.278;2023-02-18T05:29:47;101356.22;;;7.45;100.00
5996;BME280;3026;53.612;7.278;2023-02-18T05:32:14;101352.50;;;7.46;100.00
5996;BME280;3026;53.612;7.278;2023-02-18T05:34:41;101327.81;;;7.49;100.00
5996;BME280;3026;53.612;7.278;2023-02-18T05:37:08;101321.38;;;7.50;100.00
5996;BME280;3026;53.612;7.278;2023-02-18T05:39:38;101313.94;;;7.52;100.00
5996;BME280;3026;53.612;7.278;2023-02-18T05:42:06;101317.94;;;7.48;100.00
5996;BME280;3026;53.612;7.278;2023-02-18T05:44:33;101335.94;;;7.49;100.00
5996;BME280;3026;53.612;7.278;2023-02-18T05:47:02;101329.09;;;7.55;100.00
5996;BME280;3026;53.612;7.278;2023-02-18T05:49:30;101323.53;;;7.56;100.00
5996;BME280;3026;53.612;7.278;2023-02-18T05:51:58;101318.09;;;7.56;100.00
5996;BME280;3026;53.612;7.278;2023-02-18T05:54:25;101317.97;;;7.58;100.00
5996;BME280;3026;53.612;7.278;2023-02-18T05:56:54;101324.97;;;7.60;100.00
5996;BME280;3026;53.612;7.278;2023-02-18T05:59:21;101292.25;;;7.62;100.00
5996;BME280;3026;53.612;7.278;2023-02-18T06:01:49;101273.09;;;7.64;100.00
5996;BME280;3026;53.612;7.278;2023-02-18T06:04:15;101288.25;;;7.66;100.00
5996;BME280;3026;53.612;7.278;2023-02-18T06:06:42;101299.97;;;7.67;100.00
5996;BME280;3026;53.612;7.278;2023-02-18T06:09:10;101289.81;;;7.69;100.00
5996;BME280;3026;53.612;7.278;2023-02-18T06:11:37;101271.84;;;7.68;100.00
5996;BME280;3026;53.612;7.278;2023-02-18T06:14:05;101276.25;;;7.69;100.00
5996;BME280;3026;53.612;7.278;2023-02-18T06:16:32;101279.38;;;7.74;100.00
5996;BME280;3026;53.612;7.278;2023-02-18T06:18:59;101271.25;;;7.74;100.00
5996;BME280;3026;53.612;7.278;2023-02-18T06:21:26;101264.81;;;7.75;100.00
5996;BME280;3026;53.612;7.278;2023-02-18T06:23:54;101253.94;;;7.75;100.00
5996;BME280;3026;53.612;7.278;2023-02-18T06:26:21;101234.84;;;7.76;100.00
5996;BME280;3026;53.612;7.278;2023-02-18T06:28:48;101232.69;;;7.80;100.00
5996;BME280;3026;53.612;7.278;2023-02-18T06:31:16;101230.97;;;7.79;100.00
5996;BME280;3026;53.612;7.278;2023-02-18T06:33:44;101226.81;;;7.75;100.00
5996;BME280;3026;53.612;7.278;2023-02-18T06:36:11;101229.41;;;7.76;100.00
5996;BME280;3026;53.612;7.278;2023-02-18T06:38:40;101224.53;;;7.80;100.00
5996;BME280;3026;53.612;7.278;2023-02-18T06:41:07;101212.81;;;7.79;100.00
5996;BME280;3026;53.612;7.278;2023-02-18T06:43:35;101207.25;;;7.81;100.00
5996;BME280;3026;53.612;7.278;2023-02-18T06:46:02;101206.22;;;7.82;100.00
5996;BME280;3026;53.612;7.278;2023-02-18T06:48:30;101197.38;;;7.80;100.00
5996;BME280;3026;53.612;7.278;2023-02-18T06:50:58;101183.09;;;7.78;100.00
5996;BME280;3026;53.612;7.278;2023-02-18T06:53:25;101185.53;;;7.81;100.00
5996;BME280;3026;53.612;7.278;2023-02-18T06:55:52;101178.22;;;7.81;100.00
5996;BME280;3026;53.612;7.278;2023-02-18T06:58:19;101164.81;;;7.80;100.00
5996;BME280;3026;53.612;7.278;2023-02-18T07:00:47;101157.38;;;7.82;100.00
5996;BME280;3026;53.612;7.278;2023-02-18T07:03:15;101159.06;;;7.83;100.00
5996;BME280;3026;53.612;7.278;2023-02-18T07:05:43;101149.91;;;7.84;100.00
5996;BME280;3026;53.612;7.278;2023-02-18T07:08:10;101135.66;;;7.82;100.00
5996;BME280;3026;53.612;7.278;2023-02-18T07:10:37;101132.94;;;7.82;100.00
5996;BME280;3026;53.612;7.278;2023-02-18T07:13:05;101115.63;;;7.83;100.00
5996;BME280;3026;53.612;7.278;2023-02-18T07:15:33;101109.91;;;7.86;100.00
5996;BME280;3026;53.612;7.278;2023-02-18T07:18:01;101101.06;;;7.84;100.00
5996;BME280;3026;53.612;7.278;2023-02-18T07:21:04;101092.06;;;7.83;100.00
5996;BME280;3026;53.612;7.278;2023-02-18T07:23:31;101091.63;;;7.88;100.00
5996;BME280;3026;53.612;7.278;2023-02-18T07:26:11;101086.19;;;7.88;100.00
5996;BME280;3026;53.612;7.278;2023-02-18T07:28:40;101089.63;;;7.90;100.00
5996;BME280;3026;53.612;7.278;2023-02-18T07:31:07;101079.59;;;7.90;100.00
5996;BME280;3026;53.612;7.278;2023-02-18T07:33:34;101075.03;;;7.91;100.00
5996;BME280;3026;53.612;7.278;2023-02-18T07:36:03;101065.88;;;7.92;100.00
5996;BME280;3026;53.612;7.278;2023-02-18T07:38:31;101065.03;;;7.92;100.00
5996;BME280;3026;53.612;7.278;2023-02-18T07:40:58;101068.28;;;7.95;100.00
5996;BME280;3026;53.612;7.278;2023-02-18T07:43:26;101060.84;;;7.97;100.00
5996;BME280;3026;53.612;7.278;2023-02-18T07:45:53;101052.69;;;7.97;100.00
5996;BME280;3026;53.612;7.278;2023-02-18T07:48:20;101048.97;;;7.98;100.00
5996;BME280;3026;53.612;7.278;2023-02-18T07:50:50;101053.81;;;8.04;100.00
5996;BME280;3026;53.612;7.278;2023-02-18T07:55:56;101050.19;;;8.13;100.00
5996;BME280;3026;53.612;7.278;2023-02-18T07:58:29;101036.31;;;8.16;100.00
5996;BME280;3026;53.612;7.278;2023-02-18T08:00:57;101026.56;;;8.24;100.00
5996;BME280;3026;53.612;7.278;2023-02-18T08:03:27;101019.47;;;8.31;100.00
5996;BME280;3026;53.612;7.278;2023-02-18T08:05:55;101014.16;;;8.39;100.00
5996;BME280;3026;53.612;7.278;2023-02-18T08:08:25;101003.75;;;8.52;100.00
5996;BME280;3026;53.612;7.278;2023-02-18T08:10:57;101004.91;;;8.67;100.00
5996;BME280;3026;53.612;7.278;2023-02-18T08:13:27;101002.34;;;8.84;100.00
5996;BME280;3026;53.612;7.278;2023-02-18T08:15:55;100995.13;;;8.92;100.00
5996;BME280;3026;53.612;7.278;2023-02-18T08:18:24;100984.44;;;8.99;100.00
5996;BME280;3026;53.612;7.278;2023-02-18T08:20:52;101001.19;;;9.12;100.00
5996;BME280;3026;53.612;7.278;2023-02-18T08:23:22;100992.41;;;9.18;100.00
5996;BME280;3026;53.612;7.278;2023-02-18T08:25:51;100978.47;;;9.21;100.00
5996;BME280;3026;53.612;7.278;2023-02-18T08:28:31;100996.50;;;9.22;100.00
5996;BME280;3026;53.612;7.278;2023-02-18T08:31:06;100974.75;;;9.22;100.00
5996;BME280;3026;53.612;7.278;2023-02-18T08:33:38;100972.72;;;9.24;100.00
5996;BME280;3026;53.612;7.278;2023-02-18T08:36:06;100978.16;;;9.24;100.00
5996;BME280;3026;53.612;7.278;2023-02-18T08:38:35;100988.75;;;9.27;100.00
5996;BME280;3026;53.612;7.278;2023-02-18T08:41:02;100982.13;;;9.30;100.00
5996;BME280;3026;53.612;7.278;2023-02-18T08:43:31;100982.97;;;9.30;100.00
5996;BME280;3026;53.612;7.278;2023-02-18T08:45:58;100973.78;;;9.31;100.00
5996;BME280;3026;53.612;7.278;2023-02-18T08:48:25;100968.00;;;9.34;100.00
5996;BME280;3026;53.612;7.278;2023-02-18T08:50:52;100966.31;;;9.33;100.00
5996;BME280;3026;53.612;7.278;2023-02-18T08:53:20;100949.97;;;9.33;100.00
5996;BME280;3026;53.612;7.278;2023-02-18T08:55:47;100965.97;;;9.36;100.00
5996;BME280;3026;53.612;7.278;2023-02-18T08:58:15;100956.09;;;9.35;100.00
5996;BME280;3026;53.612;7.278;2023-02-18T09:00:44;100954.06;;;9.38;100.00
5996;BME280;3026;53.612;7.278;2023-02-18T09:03:12;100969.72;;;9.35;100.00
5996;BME280;3026;53.612;7.278;2023-02-18T09:05:44;100978.91;;;9.34;100.00
5996;BME280;3026;53.612;7.278;2023-02-18T09:08:11;100960.53;;;9.36;100.00
5996;BME280;3026;53.612;7.278;2023-02-18T09:10:40;100956.09;;;9.35;100.00
5996;BME280;3026;53.612;7.278;2023-02-18T09:13:07;100959.50;;;9.38;100.00
5996;BME280;3026;53.612;7.278;2023-02-18T09:15:34;100956.78;;;9.38;100.00
5996;BME280;3026;53.612;7.278;2023-02-18T09:18:08;100955.41;;;9.33;100.00
5996;BME280;3026;53.612;7.278;2023-02-18T09:20:35;100961.72;;;9.34;100.00
5996;BME280;3026;53.612;7.278;2023-02-18T09:23:16;100959.50;;;9.29;100.00
5996;BME280;3026;53.612;7.278;2023-02-18T09:25:43;100962.91;;;9.31;100.00
5996;BME280;3026;53.612;7.278;2023-02-18T09:28:17;100972.09;;;9.30;100.00
5996;BME280;3026;53.612;7.278;2023-02-18T09:30:45;100974.13;;;9.28;100.00
5996;BME280;3026;53.612;7.278;2023-02-18T09:33:13;100972.41;;;9.27;100.00
5996;BME280;3026;53.612;7.278;2023-02-18T09:35:41;100965.56;;;9.23;100.00
5996;BME280;3026;53.612;7.278;2023-02-18T09:38:10;100960.13;;;9.23;100.00
5996;BME280;3026;53.612;7.278;2023-02-18T09:40:41;100965.56;;;9.23;100.00
5996;BME280;3026;53.612;7.278;2023-02-18T09:43:25;100962.16;;;9.21;100.00
5996;BME280;3026;53.612;7.278;2023-02-18T09:45:55;100985.63;;;9.22;100.00
5996;BME280;3026;53.612;7.278;2023-02-18T09:48:30;100956.72;;;9.21;100.00
5996;BME280;3026;53.612;7.278;2023-02-18T09:50:59;100963.84;;;9.22;100.00
5996;BME280;3026;53.612;7.278;2023-02-18T09:53:26;100955.34;;;9.17;100.00
5996;BME280;3026;53.612;7.278;2023-02-18T09:55:55;100956.19;;;9.18;100.00
5996;BME280;3026;53.612;7.278;2023-02-18T09:58:27;100967.53;;;9.13;100.00
5996;BME280;3026;53.612;7.278;2023-02-18T10:01:03;100951.94;;;9.15;100.00
5996;BME280;3026;53.612;7.278;2023-02-18T10:03:32;100954.78;;;9.14;100.00
5996;BME280;3026;53.612;7.278;2023-02-18T10:06:04;100976.41;;;9.15;100.00
5996;BME280;3026;53.612;7.278;2023-02-18T10:08:35;100946.44;;;9.07;100.00
5996;BME280;3026;53.612;7.278;2023-02-18T10:11:03;100949.84;;;9.09;100.00
5996;BME280;3026;53.612;7.278;2023-02-18T10:13:39;100952.22;;;9.12;100.00
5996;BME280;3026;53.612;7.278;2023-02-18T10:16:15;100949.84;;;9.09;100.00
5996;BME280;3026;53.612;7.278;2023-02-18T10:18:47;100961.75;;;9.08;100.00
5996;BME280;3026;53.612;7.278;2023-02-18T10:21:24;100950.16;;;9.06;100.00
5996;BME280;3026;53.612;7.278;2023-02-18T10:23:58;100944.41;;;9.09;100.00
5996;BME280;3026;53.612;7.278;2023-02-18T10:26:28;100945.75;;;9.05;100.00
5996;BME280;3026;53.612;7.278;2023-02-18T10:28:56;100949.47;;;9.04;100.00
5996;BME280;3026;53.612;7.278;2023-02-18T10:31:28;100974.31;;;9.09;100.00
5996;BME280;3026;53.612;7.278;2023-02-18T10:34:14;100957.47;;;9.05;100.00
5996;BME280;3026;53.612;7.278;2023-02-18T10:36:48;100965.47;;;9.07;100.00
5996;BME280;3026;53.612;7.278;2023-02-18T10:39:28;100970.91;;;9.07;100.00
5996;BME280;3026;53.612;7.278;2023-02-18T10:42:09;100970.59;;;9.10;100.00
5996;BME280;3026;53.612;7.278;2023-02-18T10:44:46;100977.09;;;9.17;100.00
5996;BME280;3026;53.612;7.278;2023-02-18T10:47:24;100986.81;;;9.20;100.00
5996;BME280;3026;53.612;7.278;2023-02-18T10:50:00;100985.94;;;9.19;100.00
5996;BME280;3026;53.612;7.278;2023-02-18T10:52:35;100980.50;;;9.19;100.00
5996;BME280;3026;53.612;7.278;2023-02-18T10:55:06;101000.25;;;9.21;100.00
5996;BME280;3026;53.612;7.278;2023-02-18T10:57:45;100982.91;;;9.22;100.00
5996;BME280;3026;53.612;7.278;2023-02-18T11:00:16;100992.78;;;9.23;100.00
5996;BME280;3026;53.612;7.278;2023-02-18T11:02:45;100996.50;;;9.22;100.00
5996;BME280;3026;53.612;7.278;2023-02-18T11:05:22;101002.47;;;9.26;100.00
5996;BME280;3026;53.612;7.278;2023-02-18T11:07:52;101004.72;;;9.30;100.00
5996;BME280;3026;53.612;7.278;2023-02-18T11:10:24;101009.69;;;9.35;100.00
5996;BME280;3026;53.612;7.278;2023-02-18T11:12:55;101015.28;;;9.33;100.00
5996;BME280;3026;53.612;7.278;2023-02-18T11:15:24;101019.25;;;9.39;100.00
5996;BME280;3026;53.612;7.278;2023-02-18T11:17:52;101025.56;;;9.40;100.00
5996;BME280;3026;53.612;7.278;2023-02-18T11:20:29;101023.84;;;9.39;100.00
5996;BME280;3026;53.612;7.278;2023-02-18T11:23:15;101018.59;;;9.45;100.00
5996;BME280;3026;53.612;7.278;2023-02-18T11:25:52;101014.69;;;9.48;100.00
5996;BME280;3026;53.612;7.278;2023-02-18T11:28:29;101015.41;;;9.50;100.00
5996;BME280;3026;53.612;7.278;2023-02-18T11:31:02;101031.03;;;9.48;100.00
5996;BME280;3026;53.612;7.278;2023-02-18T11:33:33;101031.06;;;9.56;100.00
5996;BME280;3026;53.612;7.278;2023-02-18T11:38:56;101035.56;;;9.65;100.00
5996;BME280;3026;53.612;7.278;2023-02-18T11:41:34;101042.38;;;9.69;100.00
5996;BME280;3026;53.612;7.278;2023-02-18T11:44:07;101027.06;;;9.68;100.00
5996;BME280;3026;53.612;7.278;2023-02-18T11:46:58;101034.91;;;9.71;100.00
5996;BME280;3026;53.612;7.278;2023-02-18T11:49:39;101046.84;;;9.78;100.00
5996;BME280;3026;53.612;7.278;2023-02-18T11:52:19;101042.09;;;9.80;100.00
5996;BME280;3026;53.612;7.278;2023-02-18T11:54:59;101038.41;;;9.89;100.00
5996;BME280;3026;53.612;7.278;2023-02-18T11:57:28;101047.31;;;10.00;100.00
5996;BME280;3026;53.612;7.278;2023-02-18T11:59:58;101067.91;;;10.02;100.00
5996;BME280;3026;53.612;7.278;2023-02-18T12:02:31;101058.03;;;10.01;100.00
5996;BME280;3026;53.612;7.278;2023-02-18T12:05:04;101054.81;;;10.06;100.00
5996;BME280;3026;53.612;7.278;2023-02-18T12:07:44;101071.56;;;10.19;100.00
5996;BME280;3026;53.612;7.278;2023-02-18T12:10:14;101061.72;;;10.26;100.00
5996;BME280;3026;53.612;7.278;2023-02-18T12:12:46;101062.06;;;10.23;100.00
5996;BME280;3026;53.612;7.278;2023-02-18T12:15:17;101069.44;;;10.31;100.00
5996;BME280;3026;53.612;7.278;2023-02-18T12:18:04;101057.03;;;10.52;100.00
5996;BME280;3026;53.612;7.278;2023-02-18T12:20:57;101071.38;;;10.71;100.00
5996;BME280;3026;53.612;7.278;2023-02-18T12:23:47;101064.59;;;10.83;100.00
5996;BME280;3026;53.612;7.278;2023-02-18T12:26:37;101064.59;;;10.91;100.00
5996;BME280;3026;53.612;7.278;2023-02-18T12:29:32;101084.72;;;10.98;100.00
5996;BME280;3026;53.612;7.278;2023-02-18T12:32:17;101095.28;;;10.85;100.00
5996;BME280;3026;53.612;7.278;2023-02-18T12:34:59;101079.94;;;10.92;100.00
5996;BME280;3026;53.612;7.278;2023-02-18T12:37:43;101088.81;;;11.02;100.00
5996;BME280;3026;53.612;7.278;2023-02-18T12:40:39;101105.56;;;11.24;100.00
5996;BME280;3026;53.612;7.278;2023-02-18T12:43:21;101104.84;;;11.30;100.00
5996;BME280;3026;53.612;7.278;2023-02-18T12:46:08;101092.56;;;11.09;100.00
5996;BME280;3026;53.612;7.278;2023-02-18T12:48:51;101115.09;;;11.20;100.00
5996;BME280;3026;53.612;7.278;2023-02-18T12:51:36;101114.75;;;11.23;100.00
5996;BME280;3026;53.612;7.278;2023-02-18T12:54:27;101107.06;;;11.34;100.00
5996;BME280;3026;53.612;7.278;2023-02-18T12:57:23;101118.16;;;11.49;100.00
5996;BME280;3026;53.612;7.278;2023-02-18T13:03:31;101130.78;;;11.42;100.00
5996;BME280;3026;53.612;7.278;2023-02-18T13:06:20;101134.03;;;11.46;100.00
5996;BME280;3026;53.612;7.278;2023-02-18T13:09:31;101146.16;;;11.35;100.00
5996;BME280;3026;53.612;7.278;2023-02-18T13:15:02;101155.31;;;11.09;100.00
5996;BME280;3026;53.612;7.278;2023-02-18T13:17:34;101157.69;;;10.96;100.00
5996;BME280;3026;53.612;7.278;2023-02-18T13:20:24;101143.34;;;10.78;100.00
5996;BME280;3026;53.612;7.278;2023-02-18T13:23:04;101156.97;;;10.70;100.00
5996;BME280;3026;53.612;7.278;2023-02-18T13:25:36;101158.63;;;10.63;100.00
5996;BME280;3026;53.612;7.278;2023-02-18T13:28:15;101163.06;;;10.64;100.00
5996;BME280;3026;53.612;7.278;2023-02-18T13:33:49;101158.28;;;10.58;100.00
5996;BME280;3026;53.612;7.278;2023-02-18T13:36:33;101162.03;;;10.57;100.00
5996;BME280;3026;53.612;7.278;2023-02-18T13:39:05;101173.28;;;10.54;100.00
5996;BME280;3026;53.612;7.278;2023-02-18T13:41:37;101165.91;;;10.46;100.00
5996;BME280;3026;53.612;7.278;2023-02-18T13:44:14;101176.97;;;10.44;100.00
5996;BME280;3026;53.612;7.278;2023-02-18T13:46:58;101170.84;;;10.42;100.00
5996;BME280;3026;53.612;7.278;2023-02-18T13:49:32;101180.88;;;10.42;100.00
5996;BME280;3026;53.612;7.278;2023-02-18T13:52:05;101166.38;;;10.33;100.00
5996;BME280;3026;53.612;7.278;2023-02-18T13:54:39;101170.09;;;10.32;100.00